Time;durP1;ratioP1;P1;durP2;ratioP2;P2;SDS_P1;SDS_P2;PMS_P1;PMS_P2;Temp;Humidity;BMP_temperature;BMP_pressure;BME280_temperature;BME280_humidity;BME280_pressure;Samples;Min_cycle;Max_cycle;Signal;HPM_P1;HPM_P2
2024/01/16 02:48:48;;;;;;;0.10;0.10;;;-19.90;99.90;;;;;;1931375;72;26981;-89
2024/01/16 02:51:27;;;;;;;0.20;0.20;;;-19.80;99.90;;;;;;1891157;75;25298;-88
2024/01/16 02:54:25;;;;;;;0.25;0.25;;;-19.70;99.90;;;;;;1893179;73;25232;-89
2024/01/16 03:58:35;;;;;;;1.00;0.60;;;-20.50;99.90;;;;;;1917163;73;27046;-88
2024/01/16 05:37:23;;;;;;;1.22;0.80;;;-21.50;99.90;;;;;;1919449;73;25249;-88
2024/01/16 06:40:18;;;;;;;14.35;0.53;;;-22.30;99.90;;;;;;1925416;72;26899;-87
2024/01/16 06:43:29;;;;;;;0.82;0.50;;;-22.30;99.90;;;;;;1911422;73;25667;-88
2024/01/16 06:46:17;;;;;;;1.60;0.80;;;-22.30;99.90;;;;;;1903958;73;25758;-88
2024/01/16 06:49:20;;;;;;;0.72;0.65;;;-22.30;99.90;;;;;;1910718;75;25203;-88
2024/01/16 06:52:12;;;;;;;0.65;0.65;;;-22.40;99.90;;;;;;1904079;75;25296;-88
2024/01/16 06:55:07;;;;;;;0.33;0.33;;;-22.50;99.90;;;;;;1912556;75;25720;-88
2024/01/16 07:27:49;;;;;;;1.85;1.10;;;-22.40;99.90;;;;;;1938177;72;26873;-87
2024/01/16 07:30:49;;;;;;;5.70;1.67;;;-22.60;99.90;;;;;;1905883;73;25234;-87
2024/01/16 07:33:38;;;;;;;1.25;0.90;;;-22.70;99.90;;;;;;1876676;76;25599;-87
2024/01/16 07:36:29;;;;;;;2.65;1.60;;;-22.80;99.90;;;;;;1835531;76;25207;-87
2024/01/16 07:39:18;;;;;;;0.30;0.30;;;-22.80;99.90;;;;;;1851212;76;25185;-87
2024/01/16 07:42:21;;;;;;;0.62;0.62;;;-22.70;99.90;;;;;;1802682;77;25336;-87
2024/01/16 07:45:10;;;;;;;0.75;0.75;;;-22.70;99.90;;;;;;1843413;76;25693;-87
2024/01/16 07:50:45;;;;;;;0.65;0.65;;;-22.80;99.90;;;;;;1949230;72;27106;-88
2024/01/16 07:53:34;;;;;;;1.40;1.07;;;-22.80;99.90;;;;;;1879938;75;25234;-87
2024/01/16 07:56:23;;;;;;;2.17;1.37;;;-22.80;99.90;;;;;;1894836;75;25693;-87
2024/01/16 07:59:12;;;;;;;0.60;0.60;;;-22.70;99.90;;;;;;1898596;75;25248;-87
2024/01/16 08:05:57;;;;;;;1.20;1.10;;;-22.70;99.90;;;;;;1975418;71;27635;-88
2024/01/16 08:08:46;;;;;;;1.15;1.15;;;-22.60;99.90;;;;;;2005719;70;25271;-87
2024/01/16 08:11:40;;;;;;;2.02;0.65;;;-22.50;99.90;;;;;;2018140;70;25148;-88
2024/01/16 08:14:28;;;;;;;0.75;0.75;;;-22.40;99.90;;;;;;2004732;70;25128;-88
2024/01/16 08:17:18;;;;;;;2.95;0.78;;;-22.40;99.90;;;;;;2022005;70;25224;-88
2024/01/16 08:20:13;;;;;;;0.93;0.93;;;-22.40;99.90;;;;;;2016146;70;25334;-88
2024/01/16 08:23:02;;;;;;;0.53;0.53;;;-22.40;99.90;;;;;;2004034;70;25230;-88
2024/01/16 08:25:51;;;;;;;1.92;1.72;;;-22.20;99.90;;;;;;2023724;69;25120;-87
2024/01/16 08:31:48;;;;;;;2.85;1.72;;;-22.00;99.90;;;;;;1938532;72;27058;-87
2024/01/16 08:34:37;;;;;;;0.50;0.50;;;-21.90;99.90;;;;;;1900134;74;25232;-87
2024/01/16 08:42:24;;;;;;;5.30;2.75;;;-21.90;99.90;;;;;;1984323;69;26770;-87
2024/01/16 08:45:13;;;;;;;2.12;1.65;;;-21.90;99.90;;;;;;1934530;73;25179;-87
2024/01/16 09:01:56;;;;;;;5.28;1.22;;;-21.90;99.90;;;;;;1946731;72;27332;-87
2024/01/16 09:04:45;;;;;;;9.83;1.62;;;-21.10;99.90;;;;;;1925410;73;25725;-86
2024/01/16 09:07:33;;;;;;;2.00;1.90;;;-20.80;99.90;;;;;;1927780;73;25705;-87
2024/01/16 09:10:22;;;;;;;1.75;1.20;;;-20.50;99.90;;;;;;1922326;73;25698;-87
2024/01/16 09:13:14;;;;;;;2.05;1.85;;;-20.40;99.90;;;;;;1919612;73;25775;-87
2024/01/16 09:23:19;;;;;;;1.57;1.47;;;-20.40;99.90;;;;;;1927722;72;26784;-87
2024/01/16 09:26:58;;;;;;;2.92;1.82;;;-20.20;99.90;;;;;;1933286;73;25328;-87
2024/01/16 09:29:46;;;;;;;2.00;1.37;;;-20.00;99.90;;;;;;1933444;73;25710;-88
2024/01/16 09:32:40;;;;;;;4.60;3.30;;;-19.70;99.90;;;;;;1869618;76;25262;-88
2024/01/16 09:35:29;;;;;;;9.28;2.00;;;-19.60;99.90;;;;;;1845512;76;25230;-88
2024/01/16 09:41:49;;;;;;;7.80;3.37;;;-19.20;99.90;;;;;;1940730;72;26952;-89
2024/01/16 09:45:02;;;;;;;6.15;3.87;;;-19.30;99.90;;;;;;1900814;75;25245;-89
2024/01/16 13:08:03;;;;;;;2.97;2.77;;;-14.80;99.90;;;;;;1889194;75;27004;-88
2024/01/16 13:51:04;;;;;;;7.60;3.40;;;-13.50;99.90;;;;;;1908996;74;28894;-89
2024/01/16 13:54:43;;;;;;;3.63;2.63;;;-13.70;99.90;;;;;;1861844;75;25514;-89
2024/01/16 13:57:39;;;;;;;11.00;1.73;;;-13.50;99.90;;;;;;1865747;76;25531;-89
2024/01/16 14:00:55;;;;;;;2.80;1.73;;;-13.30;99.90;;;;;;1854069;76;25466;-89
2024/01/16 14:33:51;;;;;;;3.20;1.07;;;-13.50;99.90;;;;;;1963247;71;25420;-89
2024/01/16 14:47:49;;;;;;;0.63;0.63;;;-8.70;99.90;;;;;;1922602;72;27406;-90
2024/01/16 14:54:39;;;;;;;0.23;0.23;;;-7.70;99.90;;;;;;1876862;75;25564;-90
2024/01/16 14:58:02;;;;;;;0.67;0.47;;;-7.30;99.90;;;;;;1868243;76;25556;-90
